createdAt,value
2018-02-08T00:00:28.079Z,33.63
2018-02-08T00:02:55.536Z,33.07
2018-02-08T00:05:23.002Z,32.60
2018-02-08T00:07:50.485Z,32.33
2018-02-08T00:10:17.986Z,32.77
2018-02-08T00:12:45.603Z,35.20
2018-02-08T00:15:13.060Z,33.13
2018-02-08T00:17:40.565Z,33.57
2018-02-08T00:20:08.045Z,34.20
2018-02-08T00:22:45.278Z,36.30
2018-02-08T00:25:12.762Z,33.43
2018-02-08T00:27:40.221Z,33.00
2018-02-08T00:30:07.714Z,34.27
2018-02-08T00:32:35.178Z,36.07
2018-02-08T00:35:02.719Z,35.23
2018-02-08T00:37:30.202Z,34.47
2018-02-08T00:39:57.701Z,34.33
2018-02-08T00:42:25.174Z,34.60
2018-02-08T00:44:52.659Z,34.90
2018-02-08T00:47:20.138Z,35.40
2018-02-08T00:49:47.635Z,33.73
2018-02-08T00:52:15.946Z,35.90
2018-02-08T00:54:43.478Z,35.20
2018-02-08T00:57:10.967Z,34.43
2018-02-08T00:59:38.430Z,34.20
2018-02-08T01:02:05.891Z,36.77
2018-02-08T01:04:33.387Z,37.83
2018-02-08T01:07:01.665Z,37.60
2018-02-08T01:09:29.904Z,35.70
2018-02-08T01:11:57.373Z,35.50
2018-02-08T01:14:24.873Z,35.70
2018-02-08T01:16:52.351Z,35.50
2018-02-08T01:19:19.848Z,35.60
2018-02-08T01:21:47.326Z,37.20
2018-02-08T01:24:14.811Z,36.23
2018-02-08T01:26:42.327Z,35.87
2018-02-08T01:29:09.798Z,36.60
2018-02-08T01:31:38.040Z,35.07
2018-02-08T01:34:05.528Z,36.00
2018-02-08T01:36:33.010Z,35.60
2018-02-08T01:39:00.507Z,36.77
2018-02-08T01:41:27.989Z,34.00
2018-02-08T01:43:55.470Z,35.10
2018-02-08T01:46:22.929Z,34.33
2018-02-08T01:48:50.513Z,33.10
2018-02-08T01:51:18.014Z,36.37
2018-02-08T01:53:45.481Z,36.23
2018-02-08T01:56:12.976Z,35.67
2018-02-08T01:58:40.444Z,34.37
2018-02-08T02:01:07.935Z,35.43
2018-02-08T02:03:35.399Z,35.00
2018-02-08T02:06:02.891Z,36.27
2018-02-08T02:08:30.354Z,36.40
2018-02-08T02:10:57.855Z,33.40
2018-02-08T02:13:25.311Z,36.20
2018-02-08T02:15:52.789Z,33.93
2018-02-08T02:18:20.301Z,32.90
2018-02-08T02:20:47.765Z,35.17
2018-02-08T02:23:15.242Z,34.17
2018-02-08T02:25:42.717Z,33.13
2018-02-08T02:28:10.212Z,32.00
2018-02-08T02:30:37.685Z,30.80
2018-02-08T02:33:05.177Z,33.27
2018-02-08T02:35:32.630Z,34.40
2018-02-08T02:38:00.134Z,32.97
2018-02-08T02:40:28.358Z,33.33
2018-02-08T02:42:55.821Z,31.57
2018-02-08T02:45:23.329Z,34.60
2018-02-08T02:47:50.808Z,33.50
2018-02-08T02:50:18.333Z,31.13
2018-02-08T02:52:46.555Z,32.90
2018-02-08T02:55:14.033Z,32.37
2018-02-08T02:57:41.512Z,31.27
2018-02-08T03:00:09.770Z,31.57
2018-02-08T03:02:37.242Z,34.20
2018-02-08T03:05:05.489Z,31.43
2018-02-08T03:07:32.959Z,31.70
2018-02-08T03:10:00.475Z,32.10
2018-02-08T03:12:27.974Z,34.20
2018-02-08T03:14:55.430Z,32.63
2018-02-08T03:17:22.938Z,33.27
2018-02-08T03:19:50.410Z,32.83
2018-02-08T03:22:17.903Z,33.57
2018-02-08T03:24:45.362Z,35.10
2018-02-08T03:27:12.851Z,34.40
2018-02-08T03:29:40.310Z,33.60
2018-02-08T03:32:07.789Z,32.10
2018-02-08T03:34:35.274Z,33.53
2018-02-08T03:37:02.753Z,33.43
2018-02-08T03:39:30.240Z,32.83
2018-02-08T03:41:58.490Z,34.27
2018-02-08T03:44:26.019Z,33.80
2018-02-08T03:46:53.509Z,34.83
2018-02-08T03:49:21.004Z,32.60
2018-02-08T03:51:48.470Z,32.33
2018-02-08T03:54:15.978Z,34.40
2018-02-08T03:56:43.442Z,33.77
2018-02-08T03:59:10.910Z,34.87
2018-02-08T04:01:38.417Z,37.10
2018-02-08T04:04:05.885Z,34.60
2018-02-08T04:06:33.386Z,32.47
2018-02-08T04:09:00.874Z,33.43
2018-02-08T04:11:28.358Z,33.83
2018-02-08T04:13:55.850Z,35.00
2018-02-08T04:16:23.346Z,33.90
2018-02-08T04:18:50.806Z,32.80
2018-02-08T04:21:18.303Z,33.17
2018-02-08T04:23:45.782Z,33.80
2018-02-08T04:26:14.038Z,32.77
2018-02-08T04:28:41.510Z,32.90
2018-02-08T04:31:09.835Z,33.40
2018-02-08T04:33:37.318Z,32.53
2018-02-08T04:36:04.809Z,34.10
2018-02-08T04:38:44.290Z,34.20
2018-02-08T04:41:23.522Z,33.00
2018-02-08T04:44:17.560Z,34.33
2018-02-08T05:00:29.082Z,36.10
2018-02-08T05:02:59.041Z,38.30
2018-02-08T05:05:26.522Z,38.17
2018-02-08T05:07:53.975Z,36.50
2018-02-08T05:10:21.485Z,35.57
2018-02-08T05:12:48.941Z,36.23
2018-02-08T05:15:16.410Z,35.47
2018-02-08T05:17:43.887Z,35.27
2018-02-08T05:20:12.141Z,34.13
2018-02-08T05:22:39.618Z,32.73
2018-02-08T05:25:07.878Z,33.80
2018-02-08T05:27:35.355Z,34.50
2018-02-08T05:30:03.606Z,33.70
2018-02-08T05:32:31.067Z,35.00
2018-02-08T05:34:58.546Z,33.83
2018-02-08T05:37:26.861Z,33.23
2018-02-08T05:39:54.333Z,31.90
2018-02-08T05:42:21.821Z,32.50
2018-02-08T05:44:49.302Z,31.23
2018-02-08T05:47:16.761Z,31.73
2018-02-08T05:49:44.266Z,33.40
2018-02-08T05:52:12.491Z,31.77
2018-02-08T05:54:40.742Z,32.40
2018-02-08T05:57:08.223Z,33.03
2018-02-08T05:59:35.686Z,33.40
2018-02-08T06:02:03.170Z,33.40
2018-02-08T06:04:30.625Z,32.30
2018-02-08T06:06:58.138Z,35.60
2018-02-08T06:09:26.362Z,31.27
2018-02-08T06:11:53.819Z,33.27
2018-02-08T06:14:21.317Z,34.53
2018-02-08T06:16:48.777Z,31.73
2018-02-08T06:19:17.041Z,32.73
2018-02-08T06:21:44.514Z,31.10
2018-02-08T06:24:12.770Z,31.93
2018-02-08T06:26:40.254Z,30.03
2018-02-08T06:29:08.474Z,32.30
2018-02-08T06:31:36.088Z,31.57
2018-02-08T06:34:04.306Z,31.33
2018-02-08T06:36:31.858Z,31.00
2018-02-08T06:38:59.350Z,30.13
2018-02-08T06:41:26.810Z,30.97
2018-02-08T06:43:54.305Z,28.80
2018-02-08T06:46:21.766Z,28.20
2018-02-08T06:48:49.314Z,29.63
2018-02-08T06:51:17.561Z,30.20
2018-02-08T06:53:45.023Z,28.97
2018-02-08T06:56:12.511Z,28.60
2018-02-08T06:58:40.767Z,29.20
2018-02-08T07:01:08.250Z,30.27
2018-02-08T07:03:36.494Z,30.83
2018-02-08T07:06:03.958Z,27.37
2018-02-08T07:08:31.457Z,31.47
2018-02-08T07:10:58.958Z,33.63
2018-02-08T07:13:26.432Z,34.73
2018-02-08T07:15:53.929Z,33.67
2018-02-08T07:18:21.499Z,32.97
2018-02-08T07:20:48.954Z,33.47
2018-02-08T07:23:16.443Z,30.97
2018-02-08T07:25:43.907Z,31.20
2018-02-08T07:28:11.410Z,30.60
2018-02-08T07:30:38.871Z,29.37
2018-02-08T07:33:06.329Z,30.47
2018-02-08T07:35:33.879Z,30.93
2018-02-08T07:38:01.343Z,30.57
2018-02-08T07:40:28.801Z,29.47
2018-02-08T07:42:56.374Z,30.43
2018-02-08T07:45:23.879Z,28.90
2018-02-08T07:47:51.378Z,29.27
2018-02-08T07:50:18.868Z,30.23
2018-02-08T07:52:46.362Z,29.87
2018-02-08T07:55:13.835Z,30.63
2018-02-08T07:57:41.310Z,31.50
2018-02-08T08:00:08.789Z,32.07
2018-02-08T08:02:36.277Z,31.60
2018-02-08T08:05:03.762Z,31.47
2018-02-08T08:07:31.245Z,31.90
2018-02-08T08:09:58.698Z,32.57
2018-02-08T08:12:26.184Z,30.93
2018-02-08T08:14:54.447Z,29.77
2018-02-08T08:17:21.902Z,28.17
2018-02-08T08:19:49.395Z,29.20
2018-02-08T08:22:16.863Z,30.40
2018-02-08T08:24:44.413Z,31.70
2018-02-08T08:27:11.839Z,29.97
2018-02-08T08:29:39.295Z,32.50
2018-02-08T08:32:06.794Z,31.70
2018-02-08T08:34:35.045Z,31.63
2018-02-08T08:37:02.550Z,29.87
2018-02-08T08:39:30.006Z,32.23
2018-02-08T08:41:57.471Z,30.40
2018-02-08T08:44:24.954Z,31.77
2018-02-08T08:46:52.426Z,31.87
2018-02-08T08:49:19.886Z,29.63
2018-02-08T08:51:47.377Z,30.77
2018-02-08T08:54:14.843Z,29.60
2018-02-08T08:56:42.327Z,31.00
2018-02-08T08:59:09.838Z,30.70
2018-02-08T09:01:37.313Z,33.77
2018-02-08T09:04:05.533Z,30.73
2018-02-08T09:06:33.030Z,28.73
2018-02-08T09:09:00.505Z,32.97
2018-02-08T09:11:27.998Z,33.10
2018-02-08T09:13:55.478Z,31.87
2018-02-08T09:16:22.942Z,29.87
2018-02-08T09:18:50.449Z,30.27
2018-02-08T09:21:17.912Z,32.80
2018-02-08T09:23:45.502Z,31.23
2018-02-08T09:26:12.970Z,29.90
2018-02-08T09:28:40.434Z,28.80
2018-02-08T09:31:07.917Z,31.10
2018-02-08T09:33:36.165Z,30.47
2018-02-08T09:36:03.618Z,29.43
2018-02-08T09:38:31.121Z,25.70
2018-02-08T09:40:58.606Z,28.67
2018-02-08T09:43:26.070Z,28.13
2018-02-08T09:45:54.457Z,25.80
2018-02-08T09:48:21.947Z,24.40
2018-02-08T09:50:50.169Z,26.20
2018-02-08T09:53:17.686Z,27.27
2018-02-08T09:55:45.941Z,26.80
2018-02-08T09:58:13.430Z,23.97
2018-02-08T10:00:40.900Z,22.97
2018-02-08T10:03:08.390Z,22.90
2018-02-08T10:05:35.852Z,23.30
2018-02-08T10:08:03.344Z,23.20
2018-02-08T10:10:30.793Z,25.10
2018-02-08T10:12:58.277Z,22.07
2018-02-08T10:15:25.733Z,22.83
2018-02-08T10:17:53.236Z,22.23
2018-02-08T10:20:20.691Z,24.10
2018-02-08T10:22:49.076Z,22.03
2018-02-08T10:25:16.558Z,22.23
2018-02-08T10:27:44.790Z,22.10
2018-02-08T10:30:12.269Z,22.00
2018-02-08T10:32:39.746Z,21.37
2018-02-08T10:35:07.201Z,24.57
2018-02-08T10:37:34.685Z,24.07
2018-02-08T10:40:02.143Z,22.93
2018-02-08T10:42:29.637Z,24.07
2018-02-08T10:44:57.874Z,21.90
2018-02-08T10:47:25.390Z,24.13
2018-02-08T10:49:52.905Z,22.43
2018-02-08T10:52:20.392Z,23.07
2018-02-08T10:54:47.858Z,26.27
2018-02-08T10:57:15.310Z,20.53
2018-02-08T10:59:42.789Z,23.00
2018-02-08T11:02:10.299Z,25.23
2018-02-08T11:04:37.769Z,20.93
2018-02-08T11:07:05.232Z,23.10
2018-02-08T11:09:32.712Z,21.93
2018-02-08T11:12:00.163Z,21.97
2018-02-08T11:14:27.650Z,22.67
2018-02-08T11:16:55.870Z,24.07
2018-02-08T11:19:23.326Z,24.47
2018-02-08T11:21:51.593Z,24.23
2018-02-08T11:24:19.062Z,27.23
2018-02-08T11:26:46.542Z,26.13
2018-02-08T11:29:14.002Z,24.20
2018-02-08T11:31:41.482Z,25.57
2018-02-08T11:34:09.734Z,23.67
2018-02-08T11:36:37.190Z,24.33
2018-02-08T11:39:04.705Z,25.03
2018-02-08T11:41:32.162Z,24.70
2018-02-08T11:43:59.674Z,26.10
2018-02-08T11:46:27.897Z,26.23
2018-02-08T11:48:55.350Z,24.40
2018-02-08T11:51:22.836Z,25.33
2018-02-08T11:53:50.309Z,26.10
2018-02-08T11:56:17.779Z,25.23
2018-02-08T11:58:46.002Z,24.37
2018-02-08T12:01:13.534Z,25.03
2018-02-08T12:03:40.974Z,26.27
2018-02-08T12:06:09.233Z,26.33
2018-02-08T12:08:37.259Z,26.23
2018-02-08T12:11:04.714Z,26.07
2018-02-08T12:13:32.219Z,28.30
2018-02-08T12:15:59.689Z,29.03
2018-02-08T12:18:27.914Z,27.67
2018-02-08T12:20:55.396Z,28.10
2018-02-08T12:23:22.878Z,28.07
2018-02-08T12:25:50.350Z,28.63
2018-02-08T12:28:18.757Z,28.77
2018-02-08T12:30:46.225Z,31.33
2018-02-08T12:33:13.690Z,30.80
2018-02-08T12:35:41.174Z,31.13
2018-02-08T12:38:08.668Z,30.90
2018-02-08T12:40:36.119Z,29.90
2018-02-08T12:43:03.606Z,30.47
2018-02-08T12:45:31.086Z,29.60
2018-02-08T12:47:58.570Z,32.80
2018-02-08T12:50:26.034Z,31.87
2018-02-08T12:52:53.509Z,33.43
2018-02-08T12:55:20.958Z,32.13
2018-02-08T12:57:48.418Z,33.10
2018-02-08T13:00:15.918Z,32.17
2018-02-08T13:02:43.382Z,33.30
2018-02-08T13:05:10.861Z,33.33
2018-02-08T13:07:38.386Z,33.07
2018-02-08T13:10:05.853Z,35.20
2018-02-08T13:12:33.461Z,34.70
2018-02-08T13:15:00.915Z,36.20
2018-02-08T13:17:28.382Z,36.00
2018-02-08T13:19:55.836Z,36.13
2018-02-08T13:22:23.325Z,36.27
2018-02-08T13:24:50.799Z,35.77
2018-02-08T13:27:18.270Z,36.10
2018-02-08T13:29:45.761Z,36.50
2018-02-08T13:32:14.830Z,37.67
2018-02-08T13:34:42.286Z,36.27
2018-02-08T13:37:09.778Z,41.97
2018-02-08T13:39:54.030Z,36.60
2018-02-08T13:42:21.530Z,36.87
2018-02-08T13:44:49.034Z,38.10
2018-02-08T13:50:50.494Z,38.60
2018-02-08T13:53:33.638Z,38.93
2018-02-08T13:56:06.686Z,38.03
2018-02-08T13:58:36.451Z,39.80
2018-02-08T14:04:16.023Z,38.10
2018-02-08T14:06:43.478Z,35.80
2018-02-08T14:09:10.966Z,36.60
2018-02-08T14:11:38.422Z,37.70
2018-02-08T14:14:05.879Z,35.87
2018-02-08T14:16:33.362Z,37.60
2018-02-08T14:19:00.818Z,35.17
2018-02-08T14:21:28.293Z,35.47
2018-02-08T14:23:55.773Z,37.40
2018-02-08T14:26:23.223Z,33.97
2018-02-08T14:28:50.698Z,35.60
2018-02-08T14:31:18.180Z,36.00
2018-02-08T14:33:45.641Z,35.33
2018-02-08T14:36:13.123Z,33.73
2018-02-08T14:38:41.382Z,35.07
2018-02-08T14:41:08.843Z,35.77
2018-02-08T14:43:36.326Z,36.37
2018-02-08T14:46:04.594Z,37.37
2018-02-08T14:48:32.024Z,35.27
2018-02-08T14:51:00.397Z,37.10
2018-02-08T14:53:27.858Z,37.97
2018-02-08T14:55:55.353Z,40.23
2018-02-08T14:58:23.586Z,38.23
2018-02-08T15:00:51.042Z,38.67
2018-02-08T15:03:18.526Z,37.67
2018-02-08T15:05:46.750Z,38.97
2018-02-08T15:08:14.205Z,40.23
2018-02-08T15:10:41.709Z,39.43
2018-02-08T15:13:09.195Z,38.23
2018-02-08T15:15:36.679Z,39.20
2018-02-08T15:18:04.138Z,39.43
2018-02-08T15:20:31.646Z,39.97
2018-02-08T15:22:59.878Z,39.60
2018-02-08T15:25:28.102Z,38.40
2018-02-08T15:27:55.584Z,39.43
2018-02-08T15:30:23.059Z,39.17
2018-02-08T15:32:50.514Z,40.80
2018-02-08T15:35:17.998Z,41.70
2018-02-08T15:37:45.450Z,43.63
2018-02-08T15:40:13.706Z,41.63
2018-02-08T15:42:41.159Z,42.70
2018-02-08T15:45:08.621Z,40.23
2018-02-08T15:47:36.114Z,42.10
2018-02-08T15:50:03.594Z,43.40
2018-02-08T15:52:31.850Z,43.57
2018-02-08T15:54:59.309Z,42.10
2018-02-08T15:57:26.790Z,41.67
2018-02-08T15:59:55.017Z,43.13
2018-02-08T16:02:23.384Z,42.43
2018-02-08T16:04:50.877Z,43.83
2018-02-08T16:07:18.358Z,43.57
2018-02-08T16:09:45.821Z,43.73
2018-02-08T16:12:13.302Z,46.50
2018-02-08T16:14:40.762Z,44.67
2018-02-08T16:17:08.226Z,45.13
2018-02-08T16:19:35.719Z,43.13
2018-02-08T16:22:03.182Z,43.93
2018-02-08T16:24:30.657Z,44.80
2018-02-08T16:26:58.881Z,45.43
2018-02-08T16:29:27.138Z,42.90
2018-02-08T16:31:54.593Z,43.87
2018-02-08T16:34:22.070Z,44.30
2018-02-08T16:36:49.530Z,44.30
2018-02-08T16:39:16.986Z,43.77
2018-02-08T16:41:44.477Z,44.87
2018-02-08T16:44:12.730Z,44.37
2018-02-08T16:46:40.210Z,43.97
2018-02-08T16:49:08.458Z,46.90
2018-02-08T16:51:35.942Z,45.97
2018-02-08T16:54:04.530Z,44.53
2018-02-08T16:56:32.015Z,46.73
2018-02-08T16:58:59.489Z,47.57
2018-02-08T17:01:26.978Z,46.27
2018-02-08T17:03:54.440Z,47.87
2018-02-08T17:06:21.908Z,49.07
2018-02-08T17:08:50.173Z,48.93
2018-02-08T17:11:17.666Z,48.57
2018-02-08T17:13:45.158Z,47.80
2018-02-08T17:16:12.625Z,47.83
2018-02-08T17:18:40.098Z,49.53
2018-02-08T17:21:07.562Z,48.33
2018-02-08T17:23:35.042Z,50.90
2018-02-08T17:26:03.261Z,49.33
2018-02-08T17:28:30.742Z,49.63
2018-02-08T17:30:58.201Z,49.90
2018-02-08T17:33:25.685Z,49.90
2018-02-08T17:35:54.542Z,53.67
2018-02-08T17:38:22.004Z,47.53
2018-02-08T17:40:49.467Z,53.13
2018-02-08T17:43:16.972Z,53.17
2018-02-08T17:45:44.435Z,54.17
2018-02-08T17:48:11.967Z,48.20
2018-02-08T17:50:39.409Z,52.17
2018-02-08T17:53:07.651Z,52.70
2018-02-08T17:55:35.146Z,52.77
2018-02-08T17:58:03.382Z,52.77
2018-02-08T18:00:30.849Z,51.03
2018-02-08T18:02:58.342Z,52.73
2018-02-08T18:05:26.604Z,52.07
2018-02-08T18:07:54.896Z,49.10
2018-02-08T18:10:23.125Z,54.53
2018-02-08T18:12:50.597Z,55.13
2018-02-08T18:15:18.087Z,53.70
2018-02-08T18:17:46.338Z,57.93
2018-02-08T18:20:13.818Z,63.30
2018-02-08T18:22:42.094Z,58.10
2018-02-08T18:25:10.339Z,57.03
2018-02-08T18:27:37.838Z,55.80
2018-02-08T18:30:05.304Z,58.57
2018-02-08T18:32:32.758Z,62.47
2018-02-08T18:35:00.258Z,62.37
2018-02-08T18:37:27.761Z,56.90
2018-02-08T18:39:55.994Z,58.33
2018-02-08T18:42:23.463Z,54.53
2018-02-08T18:44:50.946Z,54.60
2018-02-08T18:47:19.194Z,51.70
2018-02-08T18:49:46.693Z,56.73
2018-02-08T18:52:14.152Z,56.03
2018-02-08T18:54:41.633Z,52.07
2018-02-08T18:57:09.089Z,55.70
2018-02-08T18:59:36.593Z,53.20
2018-02-08T19:02:04.054Z,57.10
2018-02-08T19:04:31.546Z,53.13
2018-02-08T19:06:59.004Z,56.83
2018-02-08T19:09:26.518Z,56.87
2018-02-08T19:11:54.010Z,55.07
2018-02-08T19:14:21.487Z,53.20
2018-02-08T19:16:48.958Z,53.97
2018-02-08T19:19:16.450Z,54.93
2018-02-08T19:21:43.926Z,52.70
2018-02-08T19:24:11.406Z,56.63
2018-02-08T19:26:38.910Z,53.43
2018-02-08T19:29:06.401Z,55.13
2018-02-08T19:31:34.641Z,54.67
2018-02-08T19:34:02.130Z,54.87
2018-02-08T19:36:30.366Z,53.90
2018-02-08T19:38:57.846Z,52.90
2018-02-08T19:41:26.114Z,54.20
2018-02-08T19:43:53.605Z,54.13
2018-02-08T19:46:21.111Z,53.80
2018-02-08T19:48:48.579Z,56.33
2018-02-08T19:51:16.054Z,55.23
2018-02-08T19:53:43.558Z,55.07
2018-02-08T19:56:11.053Z,56.77
2018-02-08T19:58:38.525Z,55.97
2018-02-08T20:01:05.993Z,58.60
2018-02-08T20:03:34.256Z,58.33
2018-02-08T20:06:01.738Z,60.77
2018-02-08T20:08:29.221Z,61.10
2018-02-08T20:10:56.678Z,60.63
2018-02-08T20:13:24.133Z,60.53
2018-02-08T20:15:51.647Z,58.03
2018-02-08T20:18:19.115Z,61.23
2018-02-08T20:20:47.356Z,60.97
2018-02-08T20:23:14.844Z,60.43
2018-02-08T20:25:42.331Z,59.33
2018-02-08T20:28:09.808Z,59.93
2018-02-08T20:30:37.302Z,59.20
2018-02-08T20:33:04.803Z,62.43
2018-02-08T20:35:32.272Z,61.87
2018-02-08T20:37:59.734Z,60.33
2018-02-08T20:40:28.046Z,61.70
2018-02-08T20:43:01.085Z,61.60
2018-02-08T20:45:28.579Z,62.40
2018-02-08T20:47:56.073Z,60.93
2018-02-08T20:50:23.556Z,61.07
2018-02-08T20:52:51.018Z,59.67
2018-02-08T20:55:18.501Z,62.60
2018-02-08T20:57:46.741Z,63.67
2018-02-08T21:00:14.222Z,60.73
2018-02-08T21:02:42.490Z,60.97
2018-02-08T21:05:09.958Z,62.00
2018-02-08T21:07:37.446Z,61.83
2018-02-08T21:10:04.930Z,62.27
2018-02-08T21:12:32.586Z,63.17
2018-02-08T21:15:00.821Z,60.73
2018-02-08T21:17:28.295Z,59.77
2018-02-08T21:19:55.875Z,61.77
2018-02-08T21:22:23.344Z,61.00
2018-02-08T21:24:50.803Z,59.77
2018-02-08T21:27:18.285Z,60.53
2018-02-08T21:29:45.794Z,60.00
2018-02-08T21:32:14.161Z,61.47
2018-02-08T21:34:41.639Z,60.10
2018-02-08T21:37:09.134Z,63.60
2018-02-08T21:39:36.596Z,61.90
2018-02-08T21:42:04.070Z,63.97
2018-02-08T21:44:32.301Z,59.93
2018-02-08T21:46:59.785Z,62.40
2018-02-08T21:49:27.258Z,63.87
2018-02-08T21:51:54.766Z,62.80
2018-02-08T21:54:22.238Z,62.87
2018-02-08T21:56:49.690Z,61.17
2018-02-08T21:59:17.174Z,61.17
2018-02-08T22:01:44.659Z,64.13
2018-02-08T22:04:12.122Z,63.17
2018-02-08T22:06:39.610Z,60.30
2018-02-08T22:09:07.079Z,62.20
2018-02-08T22:11:34.562Z,60.90
2018-02-08T22:14:02.044Z,60.37
2018-02-08T22:16:29.534Z,61.73
2018-02-08T22:18:57.795Z,60.07
2018-02-08T22:21:26.126Z,60.93
2018-02-08T22:23:53.615Z,57.77
2018-02-08T22:26:21.102Z,62.83
2018-02-08T22:28:49.338Z,58.90
2018-02-08T22:31:16.823Z,61.33
2018-02-08T22:33:44.308Z,59.23
2018-02-08T22:36:11.797Z,59.07
2018-02-08T22:38:39.258Z,60.37
2018-02-08T22:41:08.117Z,59.63
2018-02-08T22:43:35.601Z,59.40
2018-02-08T22:46:03.081Z,61.50
2018-02-08T22:48:30.544Z,60.30
2018-02-08T22:50:58.074Z,59.37
2018-02-08T22:53:25.533Z,56.77
2018-02-08T22:55:52.996Z,57.67
2018-02-08T22:58:20.478Z,58.27
2018-02-08T23:00:47.941Z,58.83
2018-02-08T23:03:15.428Z,56.00
2018-02-08T23:05:42.899Z,58.00
2018-02-08T23:08:10.382Z,58.23
2018-02-08T23:10:38.634Z,57.60
2018-02-08T23:13:06.118Z,58.10
2018-02-08T23:15:33.574Z,57.80
2018-02-08T23:18:01.058Z,58.33
2018-02-08T23:20:30.430Z,54.67
2018-02-08T23:22:57.890Z,58.37
2018-02-08T23:25:25.406Z,58.67
2018-02-08T23:27:52.873Z,56.80
2018-02-08T23:30:20.338Z,56.33
2018-02-08T23:32:47.826Z,57.67
2018-02-08T23:35:15.329Z,56.63
2018-02-08T23:37:42.792Z,59.40
2018-02-08T23:40:10.253Z,58.77
2018-02-08T23:42:37.749Z,57.63
2018-02-08T23:45:05.203Z,56.33
2018-02-08T23:47:32.690Z,59.73
2018-02-08T23:50:00.145Z,57.40
2018-02-08T23:52:27.646Z,57.63
2018-02-08T23:54:55.110Z,55.83
2018-02-08T23:57:22.607Z,57.27
2018-02-08T23:59:50.085Z,58.20
